createdAt,value
2022-08-26T00:00:11.406Z,3.67
2022-08-26T00:05:13.640Z,4.15
2022-08-26T00:10:15.521Z,3.90
2022-08-26T00:15:19.350Z,3.60
2022-08-26T00:20:23.559Z,3.90
2022-08-26T00:25:25.412Z,4.00
2022-08-26T00:30:28.605Z,4.27
2022-08-26T00:35:30.097Z,3.83
2022-08-26T00:40:37.253Z,4.20
2022-08-26T00:45:50.614Z,4.20
2022-08-26T00:50:56.470Z,4.30
2022-08-26T00:56:01.704Z,4.25
2022-08-26T01:01:04.117Z,4.30
2022-08-26T01:06:12.574Z,4.28
2022-08-26T01:11:16.283Z,4.03
2022-08-26T01:16:17.971Z,4.10
2022-08-26T01:21:25.570Z,4.50
2022-08-26T01:26:40.566Z,4.53
2022-08-26T01:31:46.605Z,4.50
2022-08-26T01:36:51.576Z,3.70
2022-08-26T01:41:54.924Z,3.85
2022-08-26T01:46:57.414Z,4.50
2022-08-26T01:52:00.005Z,4.40
2022-08-26T01:57:01.993Z,4.20
2022-08-26T02:02:04.061Z,4.53
2022-08-26T02:07:07.964Z,4.40
2022-08-26T02:12:11.729Z,4.43
2022-08-26T02:17:13.484Z,4.10
2022-08-26T02:22:17.837Z,4.25
2022-08-26T02:27:21.785Z,4.43
2022-08-26T02:32:24.853Z,4.00
2022-08-26T02:37:29.353Z,4.00
2022-08-26T02:42:30.901Z,4.17
2022-08-26T02:47:33.500Z,4.32
2022-08-26T02:52:35.082Z,4.25
2022-08-26T02:57:37.565Z,4.17
2022-08-26T03:02:40.077Z,3.87
2022-08-26T03:07:41.348Z,4.18
2022-08-26T03:12:44.742Z,4.30
2022-08-26T03:17:50.367Z,4.47
2022-08-26T03:22:53.234Z,4.90
2022-08-26T03:27:57.460Z,4.43
2022-08-26T03:33:01.390Z,4.60
2022-08-26T03:38:04.712Z,4.57
2022-08-26T03:43:07.069Z,4.80
2022-08-26T03:48:11.346Z,4.87
2022-08-26T03:53:13.475Z,4.70
2022-08-26T03:58:14.768Z,4.63
2022-08-26T04:03:36.012Z,4.40
2022-08-26T04:08:37.850Z,4.33
2022-08-26T04:13:39.858Z,4.30
2022-08-26T04:18:46.565Z,4.15
2022-08-26T04:23:48.672Z,4.20
2022-08-26T04:28:51.518Z,4.28
2022-08-26T04:33:52.965Z,5.00
2022-08-26T04:38:54.749Z,4.40
2022-08-26T04:43:56.965Z,4.60
2022-08-26T04:48:59.015Z,4.60
2022-08-26T04:54:00.461Z,4.70
2022-08-26T04:59:02.986Z,4.63
2022-08-26T05:04:05.946Z,5.18
2022-08-26T05:09:09.524Z,4.90
2022-08-26T05:14:11.114Z,4.80
2022-08-26T05:19:12.434Z,5.30
2022-08-26T05:24:13.981Z,4.88
2022-08-26T05:29:15.955Z,5.50
2022-08-26T05:34:18.162Z,5.43
2022-08-26T05:39:23.356Z,5.75
2022-08-26T05:44:24.753Z,5.65
2022-08-26T05:49:26.687Z,5.47
2022-08-26T05:54:28.003Z,8.13
2022-08-26T05:59:29.528Z,5.20
2022-08-26T06:04:34.106Z,6.13
2022-08-26T06:09:38.711Z,5.30
2022-08-26T06:14:40.377Z,5.50
2022-08-26T06:19:41.689Z,6.37
2022-08-26T06:25:02.290Z,5.53
2022-08-26T06:30:03.779Z,5.75
2022-08-26T06:35:06.148Z,5.95
2022-08-26T06:40:13.425Z,5.33
2022-08-26T06:45:14.812Z,5.10
2022-08-26T06:50:16.164Z,5.38
2022-08-26T06:55:18.370Z,4.77
2022-08-26T07:00:20.637Z,4.80
2022-08-26T07:05:22.190Z,4.90
2022-08-26T07:10:23.977Z,4.53
2022-08-26T07:15:31.030Z,4.73
2022-08-26T07:20:32.849Z,4.95
2022-08-26T07:25:34.658Z,5.20
2022-08-26T07:30:39.217Z,4.83
2022-08-26T07:35:42.097Z,5.40
2022-08-26T07:40:43.386Z,5.35
2022-08-26T07:45:45.341Z,5.00
2022-08-26T07:50:50.339Z,5.18
2022-08-26T07:55:52.371Z,5.72
2022-08-26T08:00:53.719Z,5.27
2022-08-26T08:05:55.107Z,5.03
2022-08-26T08:10:57.461Z,4.88
2022-08-26T08:15:58.818Z,5.57
2022-08-26T08:21:21.418Z,5.00
2022-08-26T08:26:24.578Z,5.00
2022-08-26T08:31:56.044Z,5.93
2022-08-26T08:36:53.601Z,4.73
2022-08-26T08:42:04.167Z,5.38
2022-08-26T08:47:11.309Z,7.07
2022-08-26T08:52:25.815Z,5.50
2022-08-26T08:57:31.885Z,4.90
2022-08-26T09:02:42.127Z,4.68
2022-08-26T09:07:47.083Z,5.05
2022-08-26T09:12:49.324Z,5.17
2022-08-26T09:18:10.918Z,5.90
2022-08-26T09:23:12.341Z,5.10
2022-08-26T09:28:16.245Z,5.37
2022-08-26T09:33:26.612Z,5.53
2022-08-26T09:38:33.155Z,5.88
2022-08-26T09:43:34.512Z,5.83
2022-08-26T09:48:36.891Z,5.07
2022-08-26T09:53:50.313Z,4.80
2022-08-26T09:58:51.722Z,5.00
2022-08-26T10:03:53.106Z,4.93
2022-08-26T10:08:57.223Z,4.85
2022-08-26T10:14:01.737Z,5.22
2022-08-26T10:19:08.323Z,5.73
2022-08-26T10:24:11.440Z,4.70
2022-08-26T10:29:20.336Z,4.80
2022-08-26T10:34:23.498Z,4.93
2022-08-26T10:39:36.861Z,5.20
2022-08-26T10:44:39.136Z,5.57
2022-08-26T10:49:46.586Z,5.60
2022-08-26T10:54:53.346Z,5.17
2022-08-26T11:00:27.958Z,5.10
2022-08-26T11:05:30.027Z,5.32
2022-08-26T11:10:54.811Z,5.30
2022-08-26T11:15:59.416Z,4.78
2022-08-26T11:21:02.683Z,5.20
2022-08-26T11:26:10.191Z,5.23
2022-08-26T11:31:18.530Z,5.00
2022-08-26T11:36:37.308Z,5.20
2022-08-26T11:41:42.877Z,5.38
2022-08-26T11:46:51.618Z,4.60
2022-08-26T11:52:07.801Z,4.30
2022-08-26T11:57:12.168Z,4.72
2022-08-26T12:02:15.493Z,4.93
2022-08-26T12:07:18.583Z,5.40
2022-08-26T12:12:34.932Z,5.50
2022-08-26T12:17:36.564Z,5.30
2022-08-26T12:22:43.463Z,4.77
2022-08-26T12:27:53.708Z,4.90
2022-08-26T12:33:17.992Z,4.68
2022-08-26T12:38:25.174Z,4.50
2022-08-26T12:43:36.754Z,4.50
2022-08-26T12:48:40.069Z,4.57
2022-08-26T12:53:42.999Z,4.30
2022-08-26T12:58:44.395Z,4.50
2022-08-26T13:03:45.848Z,4.63
2022-08-26T13:08:56.232Z,4.90
2022-08-26T13:13:59.202Z,5.20
2022-08-26T13:19:01.877Z,4.57
2022-08-26T13:24:13.425Z,4.28
2022-08-26T13:29:14.913Z,4.40
2022-08-26T13:34:20.417Z,4.60
2022-08-26T13:39:22.220Z,4.10
2022-08-26T13:44:23.510Z,4.73
2022-08-26T13:49:24.813Z,4.97
2022-08-26T13:54:26.093Z,3.83
2022-08-26T13:59:27.614Z,4.23
2022-08-26T14:04:28.902Z,4.33
2022-08-26T14:09:30.197Z,3.90
2022-08-26T14:14:31.497Z,4.60
2022-08-26T14:19:32.849Z,5.33
2022-08-26T14:24:34.120Z,5.38
2022-08-26T14:29:35.455Z,5.13
2022-08-26T14:34:40.771Z,4.97
2022-08-26T14:39:42.055Z,5.03
2022-08-26T14:44:45.274Z,5.40
2022-08-26T14:49:46.576Z,4.90
2022-08-26T14:54:47.862Z,4.97
2022-08-26T14:59:56.158Z,5.35
2022-08-26T15:04:57.433Z,5.00
2022-08-26T15:09:58.709Z,5.33
2022-08-26T15:15:00.178Z,5.00
2022-08-26T15:20:01.547Z,6.70
2022-08-26T15:25:03.663Z,5.33
2022-08-26T15:30:06.397Z,5.68
2022-08-26T15:35:09.292Z,5.43
2022-08-26T15:40:10.999Z,5.33
2022-08-26T15:45:12.370Z,6.40
2022-08-26T15:50:27.205Z,6.57
2022-08-26T15:55:28.635Z,7.07
2022-08-26T16:00:29.913Z,7.10
2022-08-26T16:05:31.244Z,7.50
2022-08-26T16:10:33.791Z,7.20
2022-08-26T16:15:35.472Z,7.30
2022-08-26T16:20:38.183Z,6.03
2022-08-26T16:25:39.667Z,5.90
2022-08-26T16:30:41.566Z,5.50
2022-08-26T16:35:42.987Z,5.90
2022-08-26T16:40:44.470Z,4.63
2022-08-26T16:45:45.806Z,4.18
2022-08-26T16:50:47.199Z,4.00
2022-08-26T16:55:49.518Z,4.45
2022-08-26T17:00:50.861Z,4.63
2022-08-26T17:05:52.141Z,5.00
2022-08-26T17:10:54.889Z,4.55
2022-08-26T17:15:56.367Z,4.80
2022-08-26T17:21:02.728Z,3.87
2022-08-26T17:26:04.724Z,2.60
2022-08-26T17:31:06.543Z,3.75
2022-08-26T17:36:08.572Z,3.97
2022-08-26T17:41:11.160Z,3.80
2022-08-26T17:46:12.812Z,4.22
2022-08-26T17:51:15.203Z,3.83
2022-08-26T17:56:17.765Z,4.30
2022-08-26T18:01:21.002Z,4.00
2022-08-26T18:06:23.409Z,4.63
2022-08-26T18:11:25.520Z,5.07
2022-08-26T18:16:27.286Z,4.57
2022-08-26T18:21:28.632Z,5.10
2022-08-26T18:26:38.026Z,5.00
2022-08-26T18:31:39.317Z,4.70
2022-08-26T18:36:41.310Z,5.60
2022-08-26T18:41:44.107Z,4.85
2022-08-26T18:46:46.323Z,5.10
2022-08-26T18:51:50.438Z,5.50
2022-08-26T18:56:51.721Z,5.40
2022-08-26T19:01:53.153Z,5.17
2022-08-26T19:06:54.556Z,5.43
2022-08-26T19:17:02.714Z,5.80
2022-08-26T19:22:04.447Z,5.70
2022-08-26T19:27:11.717Z,5.68
2022-08-26T19:32:17.481Z,6.30
2022-08-26T19:37:19.812Z,6.33
2022-08-26T19:42:21.149Z,6.20
2022-08-26T19:47:22.477Z,5.88
2022-08-26T19:52:24.332Z,6.83
2022-08-26T19:57:31.390Z,6.65
2022-08-26T20:02:33.916Z,6.80
2022-08-26T20:07:35.435Z,6.73
2022-08-26T20:12:36.789Z,6.33
2022-08-26T20:17:38.601Z,7.35
2022-08-26T20:22:39.979Z,7.13
2022-08-26T20:27:41.271Z,7.43
2022-08-26T20:32:42.791Z,7.72
2022-08-26T20:37:44.107Z,8.35
2022-08-26T20:42:45.377Z,7.77
2022-08-26T20:47:46.704Z,7.68
2022-08-26T20:52:47.988Z,8.38
2022-08-26T20:57:49.269Z,9.60
2022-08-26T21:02:50.626Z,9.70
2022-08-26T21:07:52.860Z,10.65
2022-08-26T21:12:54.162Z,12.77
2022-08-26T21:17:55.485Z,12.00
2022-08-26T21:22:56.804Z,12.35
2022-08-26T21:27:58.115Z,11.32
2022-08-26T21:32:59.504Z,11.60
2022-08-26T21:38:00.920Z,11.38
2022-08-26T21:43:02.226Z,12.18
2022-08-26T21:48:03.603Z,10.37
2022-08-26T21:53:04.914Z,11.17
2022-08-26T21:58:06.220Z,10.65
2022-08-26T22:03:07.515Z,11.68
2022-08-26T22:08:08.971Z,12.30
2022-08-26T22:13:10.503Z,13.05
2022-08-26T22:18:11.808Z,12.20
2022-08-26T22:23:13.186Z,13.27
2022-08-26T22:28:14.796Z,12.23
2022-08-26T22:33:17.253Z,9.45
2022-08-26T22:38:19.091Z,10.47
2022-08-26T22:43:20.407Z,10.20
2022-08-26T22:48:23.248Z,9.27
2022-08-26T22:53:24.543Z,8.13
2022-08-26T22:58:30.930Z,7.97
2022-08-26T23:03:32.653Z,9.40
2022-08-26T23:08:34.031Z,10.73
2022-08-26T23:13:36.296Z,10.07
2022-08-26T23:18:38.402Z,9.75
2022-08-26T23:23:39.686Z,10.07
2022-08-26T23:28:40.982Z,10.80
2022-08-26T23:34:00.816Z,12.80
2022-08-26T23:39:05.054Z,13.10
2022-08-26T23:44:06.372Z,15.18
2022-08-26T23:49:07.674Z,15.00
2022-08-26T23:54:08.974Z,15.88
2022-08-26T23:59:10.266Z,15.13
